sensor_id;sensor_type;location;lat;lon;timestamp;P1;durP1;ratioP1;P2;durP2;ratioP2
37851;SDS011;23691;52.486;4.650;2022-08-21T00:01:57;10.07;;;2.58;;
37851;SDS011;23691;52.486;4.650;2022-08-21T00:04:22;10.98;;;2.63;;
37851;SDS011;23691;52.486;4.650;2022-08-21T00:06:49;10.27;;;2.33;;
37851;SDS011;23691;52.486;4.650;2022-08-21T00:09:15;14.73;;;2.42;;
37851;SDS011;23691;52.486;4.650;2022-08-21T00:11:40;12.52;;;2.80;;
37851;SDS011;23691;52.486;4.650;2022-08-21T00:14:06;11.65;;;2.47;;
37851;SDS011;23691;52.486;4.650;2022-08-21T00:16:33;10.47;;;2.43;;
37851;SDS011;23691;52.486;4.650;2022-08-21T00:18:59;12.75;;;2.80;;
37851;SDS011;23691;52.486;4.650;2022-08-21T00:21:25;9.75;;;2.75;;
37851;SDS011;23691;52.486;4.650;2022-08-21T00:23:51;12.23;;;2.75;;
37851;SDS011;23691;52.486;4.650;2022-08-21T00:26:17;11.23;;;2.60;;
37851;SDS011;23691;52.486;4.650;2022-08-21T00:28:42;11.93;;;2.60;;
37851;SDS011;23691;52.486;4.650;2022-08-21T00:31:10;11.48;;;2.60;;
37851;SDS011;23691;52.486;4.650;2022-08-21T00:33:36;14.02;;;3.13;;
37851;SDS011;23691;52.486;4.650;2022-08-21T00:36:01;11.68;;;2.67;;
37851;SDS011;23691;52.486;4.650;2022-08-21T00:38:28;10.05;;;2.78;;
37851;SDS011;23691;52.486;4.650;2022-08-21T00:40:55;11.23;;;2.92;;
37851;SDS011;23691;52.486;4.650;2022-08-21T00:43:24;11.27;;;2.95;;
37851;SDS011;23691;52.486;4.650;2022-08-21T00:45:53;12.23;;;2.58;;
37851;SDS011;23691;52.486;4.650;2022-08-21T00:48:19;15.68;;;2.90;;
37851;SDS011;23691;52.486;4.650;2022-08-21T00:50:49;15.05;;;3.25;;
37851;SDS011;23691;52.486;4.650;2022-08-21T00:53:20;14.55;;;3.03;;
37851;SDS011;23691;52.486;4.650;2022-08-21T00:55:46;16.52;;;2.83;;
37851;SDS011;23691;52.486;4.650;2022-08-21T00:58:13;11.63;;;2.60;;
37851;SDS011;23691;52.486;4.650;2022-08-21T01:00:40;11.20;;;2.80;;
37851;SDS011;23691;52.486;4.650;2022-08-21T01:03:09;15.35;;;3.10;;
37851;SDS011;23691;52.486;4.650;2022-08-21T01:05:37;14.02;;;2.80;;
37851;SDS011;23691;52.486;4.650;2022-08-21T01:08:04;12.13;;;2.70;;
37851;SDS011;23691;52.486;4.650;2022-08-21T01:10:31;14.73;;;3.47;;
37851;SDS011;23691;52.486;4.650;2022-08-21T01:12:57;12.52;;;2.92;;
37851;SDS011;23691;52.486;4.650;2022-08-21T01:15:24;11.93;;;2.90;;
37851;SDS011;23691;52.486;4.650;2022-08-21T01:17:58;13.85;;;3.05;;
37851;SDS011;23691;52.486;4.650;2022-08-21T01:20:25;10.57;;;2.85;;
37851;SDS011;23691;52.486;4.650;2022-08-21T01:22:52;14.30;;;3.35;;
37851;SDS011;23691;52.486;4.650;2022-08-21T01:25:18;15.98;;;2.60;;
37851;SDS011;23691;52.486;4.650;2022-08-21T01:27:47;10.55;;;2.63;;
37851;SDS011;23691;52.486;4.650;2022-08-21T01:32:39;13.90;;;2.50;;
37851;SDS011;23691;52.486;4.650;2022-08-21T01:35:06;14.50;;;2.60;;
37851;SDS011;23691;52.486;4.650;2022-08-21T01:37:32;14.57;;;2.80;;
37851;SDS011;23691;52.486;4.650;2022-08-21T01:39:57;15.75;;;2.85;;
37851;SDS011;23691;52.486;4.650;2022-08-21T01:42:23;11.50;;;2.47;;
37851;SDS011;23691;52.486;4.650;2022-08-21T01:44:49;12.50;;;2.42;;
37851;SDS011;23691;52.486;4.650;2022-08-21T01:47:15;18.15;;;2.67;;
37851;SDS011;23691;52.486;4.650;2022-08-21T01:49:41;16.45;;;2.85;;
37851;SDS011;23691;52.486;4.650;2022-08-21T01:52:07;12.55;;;2.53;;
37851;SDS011;23691;52.486;4.650;2022-08-21T01:54:33;11.82;;;2.78;;
37851;SDS011;23691;52.486;4.650;2022-08-21T01:56:59;13.32;;;2.70;;
37851;SDS011;23691;52.486;4.650;2022-08-21T01:59:25;13.90;;;2.50;;
37851;SDS011;23691;52.486;4.650;2022-08-21T02:01:51;14.85;;;2.70;;
37851;SDS011;23691;52.486;4.650;2022-08-21T02:04:19;16.15;;;2.92;;
37851;SDS011;23691;52.486;4.650;2022-08-21T02:06:45;13.85;;;2.50;;
37851;SDS011;23691;52.486;4.650;2022-08-21T02:09:10;14.30;;;2.65;;
37851;SDS011;23691;52.486;4.650;2022-08-21T02:11:37;13.52;;;2.33;;
37851;SDS011;23691;52.486;4.650;2022-08-21T02:14:15;14.23;;;2.40;;
37851;SDS011;23691;52.486;4.650;2022-08-21T02:16:41;14.80;;;2.88;;
37851;SDS011;23691;52.486;4.650;2022-08-21T02:19:09;11.55;;;2.50;;
37851;SDS011;23691;52.486;4.650;2022-08-21T02:21:35;15.52;;;2.63;;
37851;SDS011;23691;52.486;4.650;2022-08-21T02:24:00;13.85;;;2.78;;
37851;SDS011;23691;52.486;4.650;2022-08-21T02:26:26;11.98;;;2.92;;
37851;SDS011;23691;52.486;4.650;2022-08-21T02:28:52;13.77;;;3.47;;
37851;SDS011;23691;52.486;4.650;2022-08-21T02:31:17;15.10;;;2.83;;
37851;SDS011;23691;52.486;4.650;2022-08-21T02:33:43;12.10;;;3.00;;
37851;SDS011;23691;52.486;4.650;2022-08-21T02:36:08;12.52;;;2.70;;
37851;SDS011;23691;52.486;4.650;2022-08-21T02:38:35;15.45;;;3.30;;
37851;SDS011;23691;52.486;4.650;2022-08-21T02:41:05;11.02;;;2.80;;
37851;SDS011;23691;52.486;4.650;2022-08-21T02:43:33;13.45;;;2.95;;
37851;SDS011;23691;52.486;4.650;2022-08-21T02:45:59;15.50;;;3.67;;
37851;SDS011;23691;52.486;4.650;2022-08-21T02:48:26;15.40;;;3.63;;
37851;SDS011;23691;52.486;4.650;2022-08-21T02:50:55;16.25;;;3.47;;
37851;SDS011;23691;52.486;4.650;2022-08-21T02:53:23;14.15;;;3.20;;
37851;SDS011;23691;52.486;4.650;2022-08-21T02:55:50;12.82;;;2.95;;
37851;SDS011;23691;52.486;4.650;2022-08-21T02:58:17;14.32;;;3.22;;
37851;SDS011;23691;52.486;4.650;2022-08-21T03:00:44;13.77;;;3.13;;
37851;SDS011;23691;52.486;4.650;2022-08-21T03:03:10;16.10;;;3.45;;
37851;SDS011;23691;52.486;4.650;2022-08-21T03:05:38;13.00;;;3.03;;
37851;SDS011;23691;52.486;4.650;2022-08-21T03:08:04;17.23;;;3.28;;
37851;SDS011;23691;52.486;4.650;2022-08-21T03:10:34;15.80;;;2.78;;
37851;SDS011;23691;52.486;4.650;2022-08-21T03:13:01;13.13;;;3.75;;
37851;SDS011;23691;52.486;4.650;2022-08-21T03:15:28;15.63;;;3.08;;
37851;SDS011;23691;52.486;4.650;2022-08-21T03:17:54;12.93;;;3.40;;
37851;SDS011;23691;52.486;4.650;2022-08-21T03:20:21;12.73;;;3.25;;
37851;SDS011;23691;52.486;4.650;2022-08-21T03:22:49;12.60;;;3.22;;
37851;SDS011;23691;52.486;4.650;2022-08-21T03:25:16;12.55;;;3.28;;
37851;SDS011;23691;52.486;4.650;2022-08-21T03:27:42;14.65;;;3.20;;
37851;SDS011;23691;52.486;4.650;2022-08-21T03:30:08;14.65;;;3.28;;
37851;SDS011;23691;52.486;4.650;2022-08-21T03:32:35;14.10;;;3.47;;
37851;SDS011;23691;52.486;4.650;2022-08-21T03:35:01;11.88;;;3.03;;
37851;SDS011;23691;52.486;4.650;2022-08-21T03:37:27;14.07;;;3.13;;
37851;SDS011;23691;52.486;4.650;2022-08-21T03:39:53;14.20;;;3.20;;
37851;SDS011;23691;52.486;4.650;2022-08-21T03:42:18;12.00;;;3.10;;
37851;SDS011;23691;52.486;4.650;2022-08-21T03:44:44;15.20;;;3.40;;
37851;SDS011;23691;52.486;4.650;2022-08-21T03:47:09;10.20;;;2.92;;
37851;SDS011;23691;52.486;4.650;2022-08-21T03:49:35;15.00;;;3.10;;
37851;SDS011;23691;52.486;4.650;2022-08-21T03:52:00;16.08;;;3.20;;
37851;SDS011;23691;52.486;4.650;2022-08-21T03:54:26;13.02;;;2.88;;
37851;SDS011;23691;52.486;4.650;2022-08-21T03:56:52;18.90;;;3.20;;
37851;SDS011;23691;52.486;4.650;2022-08-21T03:59:17;11.75;;;2.75;;
37851;SDS011;23691;52.486;4.650;2022-08-21T04:04:22;14.10;;;2.78;;
37851;SDS011;23691;52.486;4.650;2022-08-21T04:06:48;11.65;;;3.17;;
37851;SDS011;23691;52.486;4.650;2022-08-21T04:09:15;17.40;;;3.40;;
37851;SDS011;23691;52.486;4.650;2022-08-21T04:11:41;12.93;;;3.03;;
37851;SDS011;23691;52.486;4.650;2022-08-21T04:14:06;13.63;;;2.90;;
37851;SDS011;23691;52.486;4.650;2022-08-21T04:16:32;11.07;;;2.70;;
37851;SDS011;23691;52.486;4.650;2022-08-21T04:18:57;11.57;;;2.42;;
37851;SDS011;23691;52.486;4.650;2022-08-21T04:21:23;10.73;;;2.35;;
37851;SDS011;23691;52.486;4.650;2022-08-21T04:23:49;12.82;;;2.80;;
37851;SDS011;23691;52.486;4.650;2022-08-21T04:26:15;11.23;;;2.60;;
37851;SDS011;23691;52.486;4.650;2022-08-21T04:28:40;13.85;;;2.97;;
37851;SDS011;23691;52.486;4.650;2022-08-21T04:31:06;16.10;;;3.00;;
37851;SDS011;23691;52.486;4.650;2022-08-21T04:33:31;15.88;;;2.45;;
37851;SDS011;23691;52.486;4.650;2022-08-21T04:35:57;14.82;;;2.80;;
37851;SDS011;23691;52.486;4.650;2022-08-21T04:38:22;12.93;;;2.85;;
37851;SDS011;23691;52.486;4.650;2022-08-21T04:40:48;12.93;;;2.53;;
37851;SDS011;23691;52.486;4.650;2022-08-21T04:43:14;14.40;;;2.60;;
37851;SDS011;23691;52.486;4.650;2022-08-21T04:45:41;14.85;;;3.13;;
37851;SDS011;23691;52.486;4.650;2022-08-21T04:48:09;15.50;;;2.70;;
37851;SDS011;23691;52.486;4.650;2022-08-21T04:50:36;16.37;;;2.90;;
37851;SDS011;23691;52.486;4.650;2022-08-21T04:53:07;17.55;;;3.00;;
37851;SDS011;23691;52.486;4.650;2022-08-21T04:55:35;13.18;;;2.90;;
37851;SDS011;23691;52.486;4.650;2022-08-21T04:58:02;13.10;;;2.70;;
37851;SDS011;23691;52.486;4.650;2022-08-21T05:00:33;13.55;;;2.45;;
37851;SDS011;23691;52.486;4.650;2022-08-21T05:02:59;15.50;;;2.78;;
37851;SDS011;23691;52.486;4.650;2022-08-21T05:05:27;12.05;;;2.33;;
37851;SDS011;23691;52.486;4.650;2022-08-21T05:07:54;15.85;;;3.42;;
37851;SDS011;23691;52.486;4.650;2022-08-21T05:10:21;14.23;;;2.83;;
37851;SDS011;23691;52.486;4.650;2022-08-21T05:12:47;15.38;;;2.90;;
37851;SDS011;23691;52.486;4.650;2022-08-21T05:15:14;19.13;;;3.13;;
37851;SDS011;23691;52.486;4.650;2022-08-21T05:17:40;13.35;;;2.90;;
37851;SDS011;23691;52.486;4.650;2022-08-21T05:20:06;27.88;;;3.33;;
37851;SDS011;23691;52.486;4.650;2022-08-21T05:22:33;14.65;;;2.95;;
37851;SDS011;23691;52.486;4.650;2022-08-21T05:27:26;13.50;;;2.90;;
37851;SDS011;23691;52.486;4.650;2022-08-21T05:29:54;15.50;;;2.65;;
37851;SDS011;23691;52.486;4.650;2022-08-21T05:32:20;16.80;;;2.40;;
37851;SDS011;23691;52.486;4.650;2022-08-21T05:34:46;16.08;;;3.03;;
37851;SDS011;23691;52.486;4.650;2022-08-21T05:37:11;16.60;;;3.28;;
37851;SDS011;23691;52.486;4.650;2022-08-21T05:39:37;14.18;;;3.05;;
37851;SDS011;23691;52.486;4.650;2022-08-21T05:42:05;15.82;;;2.65;;
37851;SDS011;23691;52.486;4.650;2022-08-21T05:44:31;17.02;;;3.20;;
37851;SDS011;23691;52.486;4.650;2022-08-21T05:47:06;14.90;;;2.22;;
37851;SDS011;23691;52.486;4.650;2022-08-21T05:49:34;16.17;;;3.00;;
37851;SDS011;23691;52.486;4.650;2022-08-21T05:52:00;20.13;;;3.03;;
37851;SDS011;23691;52.486;4.650;2022-08-21T05:54:27;16.73;;;2.97;;
37851;SDS011;23691;52.486;4.650;2022-08-21T05:56:52;14.93;;;2.80;;
37851;SDS011;23691;52.486;4.650;2022-08-21T05:59:18;16.05;;;3.10;;
37851;SDS011;23691;52.486;4.650;2022-08-21T06:01:44;18.48;;;3.30;;
37851;SDS011;23691;52.486;4.650;2022-08-21T06:04:10;14.45;;;3.20;;
37851;SDS011;23691;52.486;4.650;2022-08-21T06:06:36;15.18;;;2.92;;
37851;SDS011;23691;52.486;4.650;2022-08-21T06:09:02;17.83;;;3.08;;
37851;SDS011;23691;52.486;4.650;2022-08-21T06:11:29;12.45;;;2.85;;
37851;SDS011;23691;52.486;4.650;2022-08-21T06:13:54;16.15;;;3.10;;
37851;SDS011;23691;52.486;4.650;2022-08-21T06:16:20;18.85;;;3.00;;
37851;SDS011;23691;52.486;4.650;2022-08-21T06:18:47;16.83;;;2.90;;
37851;SDS011;23691;52.486;4.650;2022-08-21T06:21:12;18.92;;;2.63;;
37851;SDS011;23691;52.486;4.650;2022-08-21T06:23:38;18.75;;;3.25;;
37851;SDS011;23691;52.486;4.650;2022-08-21T06:26:05;15.98;;;3.00;;
37851;SDS011;23691;52.486;4.650;2022-08-21T06:28:32;19.65;;;3.08;;
37851;SDS011;23691;52.486;4.650;2022-08-21T06:30:58;18.75;;;3.70;;
37851;SDS011;23691;52.486;4.650;2022-08-21T06:33:24;16.02;;;2.85;;
37851;SDS011;23691;52.486;4.650;2022-08-21T06:35:50;18.42;;;2.85;;
37851;SDS011;23691;52.486;4.650;2022-08-21T06:38:15;17.52;;;3.10;;
37851;SDS011;23691;52.486;4.650;2022-08-21T06:40:41;17.65;;;3.20;;
37851;SDS011;23691;52.486;4.650;2022-08-21T06:43:08;13.82;;;2.70;;
37851;SDS011;23691;52.486;4.650;2022-08-21T06:45:35;20.08;;;3.45;;
37851;SDS011;23691;52.486;4.650;2022-08-21T06:48:01;18.75;;;2.78;;
37851;SDS011;23691;52.486;4.650;2022-08-21T06:50:27;16.83;;;3.13;;
37851;SDS011;23691;52.486;4.650;2022-08-21T06:53:06;21.95;;;2.92;;
37851;SDS011;23691;52.486;4.650;2022-08-21T06:55:35;17.80;;;3.00;;
37851;SDS011;23691;52.486;4.650;2022-08-21T06:58:01;13.65;;;3.35;;
37851;SDS011;23691;52.486;4.650;2022-08-21T07:00:28;12.68;;;2.83;;
37851;SDS011;23691;52.486;4.650;2022-08-21T07:02:54;15.23;;;2.97;;
37851;SDS011;23691;52.486;4.650;2022-08-21T07:05:20;16.90;;;3.00;;
37851;SDS011;23691;52.486;4.650;2022-08-21T07:07:46;13.73;;;2.88;;
37851;SDS011;23691;52.486;4.650;2022-08-21T07:10:12;17.00;;;3.10;;
37851;SDS011;23691;52.486;4.650;2022-08-21T07:12:39;13.05;;;2.75;;
37851;SDS011;23691;52.486;4.650;2022-08-21T07:15:04;15.80;;;3.10;;
37851;SDS011;23691;52.486;4.650;2022-08-21T07:17:31;16.38;;;2.80;;
37851;SDS011;23691;52.486;4.650;2022-08-21T07:19:56;19.83;;;3.45;;
37851;SDS011;23691;52.486;4.650;2022-08-21T07:22:23;16.23;;;2.70;;
37851;SDS011;23691;52.486;4.650;2022-08-21T07:24:48;21.00;;;2.75;;
37851;SDS011;23691;52.486;4.650;2022-08-21T07:27:14;13.73;;;2.65;;
37851;SDS011;23691;52.486;4.650;2022-08-21T07:29:40;16.25;;;2.75;;
37851;SDS011;23691;52.486;4.650;2022-08-21T07:32:05;17.25;;;2.90;;
37851;SDS011;23691;52.486;4.650;2022-08-21T07:34:31;18.20;;;3.20;;
37851;SDS011;23691;52.486;4.650;2022-08-21T07:36:57;14.52;;;2.88;;
37851;SDS011;23691;52.486;4.650;2022-08-21T07:39:22;15.27;;;2.55;;
37851;SDS011;23691;52.486;4.650;2022-08-21T07:41:48;15.98;;;2.60;;
37851;SDS011;23691;52.486;4.650;2022-08-21T07:44:13;16.90;;;3.10;;
37851;SDS011;23691;52.486;4.650;2022-08-21T07:46:39;13.98;;;2.67;;
37851;SDS011;23691;52.486;4.650;2022-08-21T07:49:04;15.85;;;2.80;;
37851;SDS011;23691;52.486;4.650;2022-08-21T07:51:29;17.25;;;2.53;;
37851;SDS011;23691;52.486;4.650;2022-08-21T07:53:56;19.27;;;2.85;;
37851;SDS011;23691;52.486;4.650;2022-08-21T07:56:23;19.38;;;3.00;;
37851;SDS011;23691;52.486;4.650;2022-08-21T07:58:49;18.88;;;3.42;;
37851;SDS011;23691;52.486;4.650;2022-08-21T08:01:18;16.20;;;2.75;;
37851;SDS011;23691;52.486;4.650;2022-08-21T08:03:44;13.60;;;2.22;;
37851;SDS011;23691;52.486;4.650;2022-08-21T08:06:10;19.90;;;2.22;;
37851;SDS011;23691;52.486;4.650;2022-08-21T08:08:40;15.65;;;2.47;;
37851;SDS011;23691;52.486;4.650;2022-08-21T08:11:06;16.13;;;2.60;;
37851;SDS011;23691;52.486;4.650;2022-08-21T08:13:42;16.25;;;2.67;;
37851;SDS011;23691;52.486;4.650;2022-08-21T08:16:12;16.17;;;2.17;;
37851;SDS011;23691;52.486;4.650;2022-08-21T08:18:39;14.65;;;2.22;;
37851;SDS011;23691;52.486;4.650;2022-08-21T08:21:06;15.85;;;2.40;;
37851;SDS011;23691;52.486;4.650;2022-08-21T08:23:32;14.68;;;3.10;;
37851;SDS011;23691;52.486;4.650;2022-08-21T08:25:58;18.05;;;2.45;;
37851;SDS011;23691;52.486;4.650;2022-08-21T08:28:23;12.05;;;2.17;;
37851;SDS011;23691;52.486;4.650;2022-08-21T08:30:49;16.70;;;2.72;;
37851;SDS011;23691;52.486;4.650;2022-08-21T08:33:15;13.18;;;2.75;;
37851;SDS011;23691;52.486;4.650;2022-08-21T08:35:42;13.87;;;2.20;;
37851;SDS011;23691;52.486;4.650;2022-08-21T08:38:11;13.05;;;2.45;;
37851;SDS011;23691;52.486;4.650;2022-08-21T08:43:28;12.93;;;1.98;;
37851;SDS011;23691;52.486;4.650;2022-08-21T08:45:55;11.95;;;2.22;;
37851;SDS011;23691;52.486;4.650;2022-08-21T08:48:31;16.65;;;2.67;;
37851;SDS011;23691;52.486;4.650;2022-08-21T08:50:59;12.70;;;2.22;;
37851;SDS011;23691;52.486;4.650;2022-08-21T08:53:28;13.05;;;2.55;;
37851;SDS011;23691;52.486;4.650;2022-08-21T08:55:58;15.27;;;3.05;;
37851;SDS011;23691;52.486;4.650;2022-08-21T09:01:05;13.00;;;2.77;;
37851;SDS011;23691;52.486;4.650;2022-08-21T09:03:37;12.98;;;2.53;;
37851;SDS011;23691;52.486;4.650;2022-08-21T09:06:24;13.00;;;2.40;;
37851;SDS011;23691;52.486;4.650;2022-08-21T09:09:08;11.93;;;2.08;;
37851;SDS011;23691;52.486;4.650;2022-08-21T09:17:20;9.48;;;1.90;;
37851;SDS011;23691;52.486;4.650;2022-08-21T09:25:27;14.27;;;2.38;;
37851;SDS011;23691;52.486;4.650;2022-08-21T09:27:57;12.05;;;2.25;;
37851;SDS011;23691;52.486;4.650;2022-08-21T09:30:28;11.02;;;2.20;;
37851;SDS011;23691;52.486;4.650;2022-08-21T09:32:55;10.80;;;2.40;;
37851;SDS011;23691;52.486;4.650;2022-08-21T09:35:22;18.75;;;2.60;;
37851;SDS011;23691;52.486;4.650;2022-08-21T09:37:56;15.60;;;3.28;;
37851;SDS011;23691;52.486;4.650;2022-08-21T09:40:33;13.50;;;2.20;;
37851;SDS011;23691;52.486;4.650;2022-08-21T09:43:05;11.38;;;1.95;;
37851;SDS011;23691;52.486;4.650;2022-08-21T09:45:34;9.45;;;1.95;;
37851;SDS011;23691;52.486;4.650;2022-08-21T09:50:46;9.35;;;1.90;;
37851;SDS011;23691;52.486;4.650;2022-08-21T09:53:34;14.32;;;2.45;;
37851;SDS011;23691;52.486;4.650;2022-08-21T09:56:02;15.57;;;2.40;;
37851;SDS011;23691;52.486;4.650;2022-08-21T09:58:48;10.95;;;1.95;;
37851;SDS011;23691;52.486;4.650;2022-08-21T10:01:20;18.80;;;2.47;;
37851;SDS011;23691;52.486;4.650;2022-08-21T10:03:48;12.13;;;1.75;;
37851;SDS011;23691;52.486;4.650;2022-08-21T10:06:22;10.57;;;1.87;;
37851;SDS011;23691;52.486;4.650;2022-08-21T10:08:51;10.35;;;1.70;;
37851;SDS011;23691;52.486;4.650;2022-08-21T10:11:28;8.80;;;1.58;;
37851;SDS011;23691;52.486;4.650;2022-08-21T10:14:42;11.73;;;2.03;;
37851;SDS011;23691;52.486;4.650;2022-08-21T10:19:49;10.50;;;1.73;;
37851;SDS011;23691;52.486;4.650;2022-08-21T10:35:29;14.45;;;2.00;;
37851;SDS011;23691;52.486;4.650;2022-08-21T10:40:46;13.25;;;1.63;;
37851;SDS011;23691;52.486;4.650;2022-08-21T10:54:38;12.60;;;1.92;;
37851;SDS011;23691;52.486;4.650;2022-08-21T10:57:57;10.20;;;1.60;;
37851;SDS011;23691;52.486;4.650;2022-08-21T11:00:16;13.73;;;2.05;;
37851;SDS011;23691;52.486;4.650;2022-08-21T11:03:05;12.10;;;2.10;;
37851;SDS011;23691;52.486;4.650;2022-08-21T11:05:43;10.52;;;1.58;;
37851;SDS011;23691;52.486;4.650;2022-08-21T11:08:17;10.68;;;1.70;;
37851;SDS011;23691;52.486;4.650;2022-08-21T11:10:57;9.85;;;1.50;;
37851;SDS011;23691;52.486;4.650;2022-08-21T11:16:15;10.05;;;1.75;;
37851;SDS011;23691;52.486;4.650;2022-08-21T11:18:53;9.88;;;1.73;;
37851;SDS011;23691;52.486;4.650;2022-08-21T11:21:27;15.05;;;2.15;;
37851;SDS011;23691;52.486;4.650;2022-08-21T11:26:58;10.38;;;2.20;;
37851;SDS011;23691;52.486;4.650;2022-08-21T11:29:44;15.35;;;2.33;;
37851;SDS011;23691;52.486;4.650;2022-08-21T11:32:23;12.70;;;2.00;;
37851;SDS011;23691;52.486;4.650;2022-08-21T11:43:05;11.27;;;1.90;;
37851;SDS011;23691;52.486;4.650;2022-08-21T11:56:51;8.32;;;1.80;;
37851;SDS011;23691;52.486;4.650;2022-08-21T11:59:23;11.45;;;1.83;;
37851;SDS011;23691;52.486;4.650;2022-08-21T12:01:59;10.88;;;2.17;;
37851;SDS011;23691;52.486;4.650;2022-08-21T12:04:29;13.40;;;1.90;;
37851;SDS011;23691;52.486;4.650;2022-08-21T12:07:08;9.45;;;1.60;;
37851;SDS011;23691;52.486;4.650;2022-08-21T12:09:37;9.55;;;1.85;;
37851;SDS011;23691;52.486;4.650;2022-08-21T12:17:39;8.15;;;1.65;;
37851;SDS011;23691;52.486;4.650;2022-08-21T12:20:17;8.15;;;1.30;;
37851;SDS011;23691;52.486;4.650;2022-08-21T12:22:53;8.75;;;1.60;;
37851;SDS011;23691;52.486;4.650;2022-08-21T12:25:35;10.18;;;1.60;;
37851;SDS011;23691;52.486;4.650;2022-08-21T12:28:05;10.57;;;1.58;;
37851;SDS011;23691;52.486;4.650;2022-08-21T12:30:38;10.57;;;1.70;;
37851;SDS011;23691;52.486;4.650;2022-08-21T12:33:17;10.82;;;1.67;;
37851;SDS011;23691;52.486;4.650;2022-08-21T12:35:46;9.27;;;1.80;;
37851;SDS011;23691;52.486;4.650;2022-08-21T12:40:55;7.35;;;1.40;;
37851;SDS011;23691;52.486;4.650;2022-08-21T12:45:58;9.55;;;1.60;;
37851;SDS011;23691;52.486;4.650;2022-08-21T12:48:33;8.13;;;1.70;;
37851;SDS011;23691;52.486;4.650;2022-08-21T12:51:08;10.10;;;1.80;;
37851;SDS011;23691;52.486;4.650;2022-08-21T12:54:09;8.90;;;1.60;;
37851;SDS011;23691;52.486;4.650;2022-08-21T12:56:32;12.60;;;1.90;;
37851;SDS011;23691;52.486;4.650;2022-08-21T12:59:06;10.55;;;1.92;;
37851;SDS011;23691;52.486;4.650;2022-08-21T13:01:46;7.78;;;1.40;;
37851;SDS011;23691;52.486;4.650;2022-08-21T13:04:18;9.40;;;1.52;;
37851;SDS011;23691;52.486;4.650;2022-08-21T13:06:47;10.73;;;2.05;;
37851;SDS011;23691;52.486;4.650;2022-08-21T13:09:18;9.60;;;1.30;;
37851;SDS011;23691;52.486;4.650;2022-08-21T13:11:49;10.18;;;1.80;;
37851;SDS011;23691;52.486;4.650;2022-08-21T13:16:58;12.07;;;2.10;;
37851;SDS011;23691;52.486;4.650;2022-08-21T13:19:25;13.35;;;2.28;;
37851;SDS011;23691;52.486;4.650;2022-08-21T13:21:51;11.18;;;2.63;;
37851;SDS011;23691;52.486;4.650;2022-08-21T13:24:22;12.10;;;2.35;;
37851;SDS011;23691;52.486;4.650;2022-08-21T13:26:48;9.82;;;1.88;;
37851;SDS011;23691;52.486;4.650;2022-08-21T13:29:15;7.43;;;1.35;;
37851;SDS011;23691;52.486;4.650;2022-08-21T13:31:54;6.05;;;1.30;;
37851;SDS011;23691;52.486;4.650;2022-08-21T13:34:23;7.50;;;1.30;;
37851;SDS011;23691;52.486;4.650;2022-08-21T13:36:55;9.15;;;1.50;;
37851;SDS011;23691;52.486;4.650;2022-08-21T13:39:23;10.18;;;1.80;;
37851;SDS011;23691;52.486;4.650;2022-08-21T13:41:51;9.98;;;1.55;;
37851;SDS011;23691;52.486;4.650;2022-08-21T13:44:21;12.18;;;1.70;;
37851;SDS011;23691;52.486;4.650;2022-08-21T13:46:51;11.13;;;1.80;;
37851;SDS011;23691;52.486;4.650;2022-08-21T13:49:28;10.80;;;1.40;;
37851;SDS011;23691;52.486;4.650;2022-08-21T13:51:57;9.10;;;1.58;;
37851;SDS011;23691;52.486;4.650;2022-08-21T13:54:24;7.57;;;1.42;;
37851;SDS011;23691;52.486;4.650;2022-08-21T13:56:58;11.65;;;1.80;;
37851;SDS011;23691;52.486;4.650;2022-08-21T13:59:28;11.52;;;1.80;;
37851;SDS011;23691;52.486;4.650;2022-08-21T14:02:16;12.80;;;1.70;;
37851;SDS011;23691;52.486;4.650;2022-08-21T14:04:54;8.98;;;1.48;;
37851;SDS011;23691;52.486;4.650;2022-08-21T14:07:26;8.93;;;1.52;;
37851;SDS011;23691;52.486;4.650;2022-08-21T14:09:59;10.40;;;1.58;;
37851;SDS011;23691;52.486;4.650;2022-08-21T14:12:29;9.63;;;1.98;;
37851;SDS011;23691;52.486;4.650;2022-08-21T14:15:02;12.50;;;1.90;;
37851;SDS011;23691;52.486;4.650;2022-08-21T14:17:32;10.63;;;1.65;;
37851;SDS011;23691;52.486;4.650;2022-08-21T14:20:00;8.88;;;1.60;;
37851;SDS011;23691;52.486;4.650;2022-08-21T14:22:27;10.63;;;1.80;;
37851;SDS011;23691;52.486;4.650;2022-08-21T14:27:31;10.75;;;1.60;;
37851;SDS011;23691;52.486;4.650;2022-08-21T14:30:00;12.20;;;1.60;;
37851;SDS011;23691;52.486;4.650;2022-08-21T14:32:35;7.65;;;1.25;;
37851;SDS011;23691;52.486;4.650;2022-08-21T14:35:03;9.45;;;1.58;;
37851;SDS011;23691;52.486;4.650;2022-08-21T14:37:28;8.50;;;1.85;;
37851;SDS011;23691;52.486;4.650;2022-08-21T14:39:54;12.93;;;1.77;;
37851;SDS011;23691;52.486;4.650;2022-08-21T14:42:19;9.82;;;1.50;;
37851;SDS011;23691;52.486;4.650;2022-08-21T14:44:45;8.70;;;1.70;;
37851;SDS011;23691;52.486;4.650;2022-08-21T14:47:11;11.55;;;1.60;;
37851;SDS011;23691;52.486;4.650;2022-08-21T14:49:36;10.75;;;1.70;;
37851;SDS011;23691;52.486;4.650;2022-08-21T14:52:02;13.35;;;1.58;;
37851;SDS011;23691;52.486;4.650;2022-08-21T14:54:28;10.73;;;1.70;;
37851;SDS011;23691;52.486;4.650;2022-08-21T14:57:00;10.50;;;1.77;;
37851;SDS011;23691;52.486;4.650;2022-08-21T14:59:30;9.85;;;1.70;;
37851;SDS011;23691;52.486;4.650;2022-08-21T15:01:57;10.68;;;2.10;;
37851;SDS011;23691;52.486;4.650;2022-08-21T15:04:23;11.77;;;2.80;;
37851;SDS011;23691;52.486;4.650;2022-08-21T15:06:48;8.95;;;1.90;;
37851;SDS011;23691;52.486;4.650;2022-08-21T15:09:14;8.68;;;1.42;;
37851;SDS011;23691;52.486;4.650;2022-08-21T15:11:39;7.22;;;1.50;;
37851;SDS011;23691;52.486;4.650;2022-08-21T15:14:06;9.10;;;1.45;;
37851;SDS011;23691;52.486;4.650;2022-08-21T15:16:34;13.18;;;2.28;;
37851;SDS011;23691;52.486;4.650;2022-08-21T15:19:00;9.30;;;1.88;;
37851;SDS011;23691;52.486;4.650;2022-08-21T15:21:25;13.40;;;2.13;;
37851;SDS011;23691;52.486;4.650;2022-08-21T15:23:51;10.35;;;1.92;;
37851;SDS011;23691;52.486;4.650;2022-08-21T15:26:16;10.70;;;2.13;;
37851;SDS011;23691;52.486;4.650;2022-08-21T15:28:42;10.63;;;1.83;;
37851;SDS011;23691;52.486;4.650;2022-08-21T15:31:08;11.32;;;1.70;;
37851;SDS011;23691;52.486;4.650;2022-08-21T15:33:34;9.00;;;1.58;;
37851;SDS011;23691;52.486;4.650;2022-08-21T15:35:59;8.77;;;1.67;;
37851;SDS011;23691;52.486;4.650;2022-08-21T15:38:24;10.95;;;1.85;;
37851;SDS011;23691;52.486;4.650;2022-08-21T15:40:50;10.00;;;1.65;;
37851;SDS011;23691;52.486;4.650;2022-08-21T15:43:21;10.57;;;1.33;;
37851;SDS011;23691;52.486;4.650;2022-08-21T15:46:00;11.25;;;2.00;;
37851;SDS011;23691;52.486;4.650;2022-08-21T15:48:27;9.90;;;1.60;;
37851;SDS011;23691;52.486;4.650;2022-08-21T15:50:53;11.18;;;2.20;;
37851;SDS011;23691;52.486;4.650;2022-08-21T15:53:18;8.52;;;1.80;;
37851;SDS011;23691;52.486;4.650;2022-08-21T15:55:44;11.00;;;2.03;;
37851;SDS011;23691;52.486;4.650;2022-08-21T15:58:14;8.82;;;1.80;;
37851;SDS011;23691;52.486;4.650;2022-08-21T16:00:41;11.48;;;2.00;;
37851;SDS011;23691;52.486;4.650;2022-08-21T16:03:09;10.38;;;2.00;;
37851;SDS011;23691;52.486;4.650;2022-08-21T16:05:39;11.95;;;1.92;;
37851;SDS011;23691;52.486;4.650;2022-08-21T16:08:04;13.13;;;2.80;;
37851;SDS011;23691;52.486;4.650;2022-08-21T16:10:30;9.85;;;2.30;;
37851;SDS011;23691;52.486;4.650;2022-08-21T16:12:57;10.90;;;2.08;;
37851;SDS011;23691;52.486;4.650;2022-08-21T16:15:27;10.77;;;2.17;;
37851;SDS011;23691;52.486;4.650;2022-08-21T16:17:53;10.80;;;2.08;;
37851;SDS011;23691;52.486;4.650;2022-08-21T16:20:24;13.65;;;2.72;;
37851;SDS011;23691;52.486;4.650;2022-08-21T16:22:53;10.15;;;1.65;;